Home   Weather   Netherlands   Breda   Past weeks
Flag for Netherlands

Past Weather in Breda, Netherlands — Yesterday and Last 2 Weeks

Currently: 68 °F. Clear. (Weather station: Gilze-Rijen, Netherlands). See more current weather

Past Weather in Breda — Graph

°F

Breda Temperature Yesterday

Maximum temperature yesterday: 75 °F (at 1:55 pm)
Minimum temperature yesterday: 52 °F (at 2:25 am)
Average temperature yesterday: 62 °F

High & Low Weather Summary for the Past Weeks

 TemperatureHumidityPressure
High81 °F (Jun 24, 4:55 pm)100% (Jun 10, 11:25 am)30.18 "Hg (Jun 10, 11:25 am)
Low46 °F (Jun 11, 5:25 am)45% (Jun 24, 4:55 pm)29.50 "Hg (Jun 15, 4:13 am)
Average59 °F81%29.91 "Hg
* Reported Jun 9 8:25 pm — Jun 24 8:55 pm, Breda. Weather by CustomWeather, © 2024

Note: Actual official high and low records may vary slightly from our data, if they occured in-between our weather recording intervals... More about our weather records

Breda Weather History for the Previous 24 Hours

Scroll right to see more
 ConditionsComfort  
Time TempWeatherWind HumidityBarometerVisibility
8:55 pm
Mon, Jun 24
75 °FClear.7 mph57%30.04 "HgN/A
8:25 pm77 °FClear.5 mph54%30.04 "HgN/A
7:55 pm77 °FClear.6 mph51%30.04 "HgN/A
6:55 pm79 °FPassing clouds.3 mph48%30.04 "HgN/A
6:25 pm79 °FPartly sunny.3 mph48%30.04 "HgN/A
5:55 pm79 °FClear.2 mph48%30.07 "HgN/A
5:25 pm77 °FClear.3 mph54%30.07 "HgN/A
4:55 pm81 °FScattered clouds.2 mph45%30.07 "HgN/A
4:25 pm79 °FClear.1 mph51%30.07 "HgN/A
3:55 pm77 °FScattered clouds.5 mph47%30.09 "HgN/A
2:55 pm77 °FPartly sunny.1 mph47%30.09 "HgN/A
2:25 pm77 °FPartly sunny.2 mph47%30.09 "HgN/A
1:55 pm75 °FPassing clouds.3 mph54%30.12 "HgN/A
12:55 pm75 °FOvercast.5 mph54%30.12 "HgN/A
12:25 pm75 °FPartly sunny.3 mph54%30.12 "HgN/A
11:55 am75 °FClear.2 mph54%30.12 "HgN/A
11:25 am73 °FClear.3 mph61%30.12 "HgN/A
10:55 am73 °FClear.2 mph57%30.15 "HgN/A
10:25 am72 °FClear.2 mph61%30.15 "HgN/A
9:55 am72 °FClear.2 mph61%30.15 "HgN/A
8:55 am68 °FClear.2 mph69%30.15 "HgN/A
8:33 am68 °FClear.1 mph69%30.15 "HgN/A
8:25 am66 °FClear.1 mph73%30.15 "HgN/A
7:55 am64 °FClear.1 mph83%30.15 "HgN/A
7:25 am61 °FClear.2 mph88%30.12 "HgN/A
6:55 am59 °FScattered clouds.1 mph94%30.12 "HgN/A
6:25 am55 °FPartly sunny.1 mph100%30.12 "HgN/A
5:55 am55 °FOvercast.1 mph100%30.12 "HgN/A
5:25 am55 °FPartly sunny.1 mph94%30.12 "HgN/A
4:55 am54 °FOvercast.1 mph100%30.12 "HgN/A
4:25 am54 °FPassing clouds.3 mph100%30.12 "HgN/A
3:55 am54 °FClear.2 mph100%30.15 "HgN/A
3:25 am54 °FClear.1 mph100%30.15 "HgN/A
2:55 am54 °FClear.1 mph100%30.15 "HgN/A
2:25 am55 °FClear.1 mph94%30.15 "HgN/A
1:55 am55 °FClear.1 mph94%30.15 "HgN/A
1:25 am55 °FClear.1 mph94%30.15 "HgN/A
12:55 am57 °FClear.No wind94%30.15 "HgN/A
12:25 am59 °FClear.No wind88%30.15 "HgN/A
11:55 pm
Sun, Jun 23
59 °FClear.2 mph82%30.15 "HgN/A
11:25 pm63 °FClear.5 mph73%30.15 "HgN/A
Weather by CustomWeather, © 2024

See weather overview